createdAt,value
2022-10-03T00:00:46.876Z,0.00
2022-10-03T00:01:47.083Z,0.00
2022-10-03T00:02:47.333Z,0.00
2022-10-03T00:03:47.437Z,0.00
2022-10-03T00:04:47.635Z,0.00
2022-10-03T00:05:47.822Z,0.00
2022-10-03T00:06:48.020Z,0.00
2022-10-03T00:07:48.224Z,0.00
2022-10-03T00:08:48.407Z,0.00
2022-10-03T00:09:48.607Z,0.00
2022-10-03T00:10:55.816Z,0.00
2022-10-03T00:11:48.990Z,0.00
2022-10-03T00:12:49.206Z,0.00
2022-10-03T00:13:49.418Z,0.00
2022-10-03T00:14:49.619Z,0.00
2022-10-03T00:15:49.904Z,0.00
2022-10-03T00:16:50.004Z,0.00
2022-10-03T00:17:50.195Z,0.00
2022-10-03T00:18:50.390Z,0.00
2022-10-03T00:19:50.587Z,0.00
2022-10-03T00:20:50.776Z,0.00
2022-10-03T00:21:50.973Z,0.00
2022-10-03T00:22:51.174Z,0.00
2022-10-03T00:23:51.367Z,0.00
2022-10-03T00:24:51.555Z,0.00
2022-10-03T00:25:51.750Z,0.00
2022-10-03T00:26:51.935Z,0.00
2022-10-03T00:27:52.189Z,0.00
2022-10-03T00:28:52.469Z,0.00
2022-10-03T00:29:52.556Z,0.00
2022-10-03T00:30:52.863Z,0.00
2022-10-03T00:31:53.006Z,0.00
2022-10-03T00:32:53.170Z,0.00
2022-10-03T00:33:53.422Z,0.00
2022-10-03T00:34:53.493Z,0.00
2022-10-03T00:35:53.685Z,0.00
2022-10-03T00:36:53.870Z,0.00
2022-10-03T00:37:54.067Z,0.00
2022-10-03T00:38:54.264Z,0.00
2022-10-03T00:39:54.463Z,0.00
2022-10-03T00:40:54.663Z,0.00
2022-10-03T00:41:54.866Z,0.00
2022-10-03T00:42:55.080Z,0.00
2022-10-03T00:43:55.275Z,0.00
2022-10-03T00:44:55.466Z,0.00
2022-10-03T00:45:55.772Z,0.00
2022-10-03T00:46:55.927Z,0.00
2022-10-03T00:47:56.031Z,0.00
2022-10-03T00:48:56.234Z,0.00
2022-10-03T00:49:56.440Z,0.00
2022-10-03T00:50:56.643Z,0.00
2022-10-03T00:51:56.883Z,0.00
2022-10-03T00:52:57.073Z,0.00
2022-10-03T00:53:57.248Z,0.00
2022-10-03T00:54:57.438Z,0.00
2022-10-03T00:55:57.634Z,0.00
2022-10-03T00:56:57.869Z,0.00
2022-10-03T00:57:58.058Z,0.00
2022-10-03T00:58:58.389Z,0.00
2022-10-03T00:59:58.456Z,0.00
2022-10-03T01:00:58.664Z,0.00
2022-10-03T01:01:58.901Z,0.00
2022-10-03T01:02:59.069Z,0.00
2022-10-03T01:03:59.471Z,0.00
2022-10-03T01:04:59.465Z,0.00
2022-10-03T01:05:59.757Z,0.00
2022-10-03T01:06:59.719Z,0.00
2022-10-03T01:07:59.907Z,0.00
2022-10-03T01:09:00.099Z,0.00
2022-10-03T01:10:00.290Z,0.00
2022-10-03T01:11:00.466Z,0.00
2022-10-03T01:12:00.700Z,0.00
2022-10-03T01:13:00.901Z,0.00
2022-10-03T01:14:01.084Z,0.00
2022-10-03T01:15:01.277Z,0.00
2022-10-03T01:16:01.490Z,0.00
2022-10-03T01:17:01.605Z,0.00
2022-10-03T01:18:01.793Z,0.00
2022-10-03T01:19:01.975Z,0.00
2022-10-03T01:20:02.162Z,0.00
2022-10-03T01:21:02.343Z,0.00
2022-10-03T01:22:02.555Z,0.00
2022-10-03T01:23:02.740Z,0.00
2022-10-03T01:24:02.957Z,0.00
2022-10-03T01:25:03.139Z,0.00
2022-10-03T01:26:03.328Z,0.00
2022-10-03T01:27:03.703Z,0.00
2022-10-03T01:28:03.788Z,0.00
2022-10-03T01:29:03.963Z,0.00
2022-10-03T01:30:04.061Z,0.00
2022-10-03T01:31:04.275Z,0.00
2022-10-03T01:32:04.476Z,0.00
2022-10-03T01:33:04.673Z,0.00
2022-10-03T01:34:04.893Z,0.00
2022-10-03T01:35:05.081Z,0.00
2022-10-03T01:36:05.271Z,0.00
2022-10-03T01:37:05.460Z,0.00
2022-10-03T01:38:05.661Z,0.00
2022-10-03T01:39:05.860Z,0.00
2022-10-03T01:40:06.048Z,0.00
2022-10-03T01:41:06.249Z,0.00
2022-10-03T01:42:06.473Z,0.00
2022-10-03T01:43:06.694Z,0.00
2022-10-03T01:44:06.889Z,0.00
2022-10-03T01:45:07.088Z,0.00
2022-10-03T01:46:07.360Z,0.00
2022-10-03T01:47:07.468Z,0.00
2022-10-03T01:48:07.681Z,0.00
2022-10-03T01:49:07.859Z,0.00
2022-10-03T01:50:08.058Z,0.00
2022-10-03T01:51:08.246Z,0.00
2022-10-03T01:52:08.486Z,0.00
2022-10-03T01:53:08.696Z,0.00
2022-10-03T01:54:08.875Z,0.00
2022-10-03T01:55:09.116Z,0.00
2022-10-03T01:56:09.308Z,0.00
2022-10-03T01:57:09.506Z,0.00
2022-10-03T01:58:09.714Z,0.00
2022-10-03T01:59:09.941Z,0.00
2022-10-03T02:00:10.142Z,0.00
2022-10-03T02:01:10.372Z,0.00
2022-10-03T02:02:10.595Z,0.00
2022-10-03T02:03:10.777Z,0.00
2022-10-03T02:04:10.952Z,0.00
2022-10-03T02:05:11.146Z,0.00
2022-10-03T02:06:11.345Z,0.00
2022-10-03T02:07:11.537Z,0.00
2022-10-03T02:08:11.742Z,0.00
2022-10-03T02:09:11.933Z,0.00
2022-10-03T02:10:12.113Z,0.00
2022-10-03T02:11:12.324Z,0.00
2022-10-03T02:12:12.503Z,0.00
2022-10-03T02:13:12.702Z,0.00
2022-10-03T02:14:12.888Z,0.00
2022-10-03T02:15:20.058Z,0.00
2022-10-03T02:16:13.309Z,0.00
2022-10-03T02:17:13.371Z,0.00
2022-10-03T02:18:13.570Z,0.00
2022-10-03T02:19:13.746Z,0.00
2022-10-03T02:20:13.963Z,0.00
2022-10-03T02:21:14.119Z,0.00
2022-10-03T02:22:14.303Z,0.00
2022-10-03T02:23:14.517Z,0.00
2022-10-03T02:24:14.704Z,0.00
2022-10-03T02:25:14.884Z,0.00
2022-10-03T02:26:15.075Z,0.00
2022-10-03T02:27:15.260Z,0.00
2022-10-03T02:28:15.499Z,0.00
2022-10-03T02:29:15.682Z,0.00
2022-10-03T02:30:15.864Z,0.00
2022-10-03T02:31:16.087Z,0.00
2022-10-03T02:32:16.277Z,0.00
2022-10-03T02:33:16.480Z,0.00
2022-10-03T02:34:16.669Z,0.00
2022-10-03T02:35:16.858Z,0.00
2022-10-03T02:36:17.040Z,0.00
2022-10-03T02:37:17.230Z,0.00
2022-10-03T02:38:17.430Z,0.00
2022-10-03T02:39:17.610Z,0.00
2022-10-03T02:40:17.782Z,0.00
2022-10-03T02:41:17.974Z,0.00
2022-10-03T02:42:18.174Z,0.00
2022-10-03T02:43:18.382Z,0.00
2022-10-03T02:44:18.565Z,0.00
2022-10-03T02:45:18.821Z,0.00
2022-10-03T02:46:18.883Z,0.00
2022-10-03T02:47:19.065Z,0.00
2022-10-03T02:48:31.359Z,0.00
2022-10-03T02:49:20.432Z,0.00
2022-10-03T02:50:19.624Z,0.00
2022-10-03T02:51:19.816Z,0.00
2022-10-03T02:52:19.997Z,0.00
2022-10-03T02:53:20.204Z,0.00
2022-10-03T02:54:20.385Z,0.00
2022-10-03T02:55:20.559Z,0.00
2022-10-03T02:56:20.741Z,0.00
2022-10-03T02:57:20.916Z,0.00
2022-10-03T02:58:21.110Z,0.00
2022-10-03T02:59:21.295Z,0.00
2022-10-03T03:00:21.465Z,0.00
2022-10-03T03:01:21.739Z,0.00
2022-10-03T03:02:21.866Z,0.00
2022-10-03T03:03:22.042Z,0.00
2022-10-03T03:04:22.227Z,0.00
2022-10-03T03:05:22.421Z,0.00
2022-10-03T03:06:22.611Z,0.00
2022-10-03T03:07:22.812Z,0.00
2022-10-03T03:08:22.997Z,0.00
2022-10-03T03:09:23.181Z,0.00
2022-10-03T03:10:23.353Z,0.00
2022-10-03T03:11:23.537Z,0.00
2022-10-03T03:12:23.713Z,0.00
2022-10-03T03:13:23.923Z,0.00
2022-10-03T03:14:24.100Z,0.00
2022-10-03T03:15:24.272Z,0.00
2022-10-03T03:16:24.481Z,0.00
2022-10-03T03:17:24.680Z,0.00
2022-10-03T03:18:24.856Z,0.00
2022-10-03T03:19:25.051Z,0.00
2022-10-03T03:20:25.228Z,0.00
2022-10-03T03:21:25.421Z,0.00
2022-10-03T03:22:25.599Z,0.00
2022-10-03T03:23:25.796Z,0.00
2022-10-03T03:24:25.977Z,0.00
2022-10-03T03:25:26.155Z,0.00
2022-10-03T03:26:26.339Z,0.00
2022-10-03T03:27:26.517Z,0.00
2022-10-03T03:28:26.738Z,0.00
2022-10-03T03:29:26.915Z,0.00
2022-10-03T03:30:27.094Z,0.00
2022-10-03T03:31:27.317Z,0.00
2022-10-03T03:32:27.398Z,0.00
2022-10-03T03:33:27.639Z,0.00
2022-10-03T03:34:27.818Z,0.00
2022-10-03T03:35:28.004Z,0.00
2022-10-03T03:36:28.178Z,0.00
2022-10-03T03:37:28.358Z,0.00
2022-10-03T03:38:28.558Z,0.00
2022-10-03T03:39:28.745Z,0.00
2022-10-03T03:40:28.921Z,0.00
2022-10-03T03:41:29.101Z,0.00
2022-10-03T03:42:29.280Z,0.00
2022-10-03T03:43:29.486Z,0.00
2022-10-03T03:44:29.667Z,0.00
2022-10-03T03:45:30.004Z,0.00
2022-10-03T03:46:30.020Z,0.00
2022-10-03T03:47:30.206Z,0.00
2022-10-03T03:48:30.431Z,0.00
2022-10-03T03:49:30.618Z,0.00
2022-10-03T03:50:30.806Z,0.00
2022-10-03T03:51:30.993Z,0.00
2022-10-03T03:52:31.183Z,0.00
2022-10-03T03:53:31.386Z,0.00
2022-10-03T03:54:31.597Z,0.00
2022-10-03T03:55:31.775Z,0.00
2022-10-03T03:56:31.960Z,0.00
2022-10-03T03:57:32.142Z,0.00
2022-10-03T03:58:32.342Z,0.00
2022-10-03T03:59:32.523Z,0.00
2022-10-03T04:00:32.718Z,0.00
2022-10-03T04:01:32.966Z,0.00
2022-10-03T04:02:33.094Z,0.00
2022-10-03T04:03:33.286Z,0.00
2022-10-03T04:04:33.493Z,0.00
2022-10-03T04:05:33.696Z,0.00
2022-10-03T04:06:33.881Z,0.00
2022-10-03T04:07:34.070Z,0.00
2022-10-03T04:08:34.260Z,0.00
2022-10-03T04:09:34.440Z,0.00
2022-10-03T04:10:34.618Z,0.00
2022-10-03T04:11:34.799Z,0.00
2022-10-03T04:12:34.971Z,0.00
2022-10-03T04:13:35.180Z,0.00
2022-10-03T04:14:35.359Z,0.00
2022-10-03T04:15:35.551Z,0.00
2022-10-03T04:16:35.788Z,0.00
2022-10-03T04:17:35.909Z,0.00
2022-10-03T04:18:36.100Z,0.00
2022-10-03T04:19:36.275Z,0.00
2022-10-03T04:20:36.456Z,0.00
2022-10-03T04:21:36.964Z,0.00
2022-10-03T04:22:36.819Z,0.00
2022-10-03T04:23:37.024Z,0.00
2022-10-03T04:24:37.207Z,0.00
2022-10-03T04:25:37.390Z,0.00
2022-10-03T04:26:37.576Z,0.00
2022-10-03T04:27:37.760Z,0.00
2022-10-03T04:28:38.002Z,0.00
2022-10-03T04:29:38.187Z,0.00
2022-10-03T04:30:38.371Z,0.00
2022-10-03T04:31:38.828Z,0.00
2022-10-03T04:32:38.691Z,0.00
2022-10-03T04:33:38.886Z,0.00
2022-10-03T04:34:39.060Z,0.00
2022-10-03T04:35:39.264Z,0.00
2022-10-03T04:36:39.426Z,0.00
2022-10-03T04:37:39.566Z,0.00
2022-10-03T04:38:39.755Z,0.00
2022-10-03T04:39:39.954Z,0.00
2022-10-03T04:40:40.094Z,0.00
2022-10-03T04:41:43.031Z,0.00
2022-10-03T04:42:40.373Z,0.00
2022-10-03T04:43:40.528Z,4.00
2022-10-03T04:44:40.682Z,0.00
2022-10-03T04:45:40.932Z,0.00
2022-10-03T04:46:41.070Z,0.00
2022-10-03T04:47:41.214Z,4.00
2022-10-03T04:48:41.414Z,4.00
2022-10-03T04:49:41.579Z,4.00
2022-10-03T04:50:41.738Z,8.00
2022-10-03T04:51:42.000Z,8.00
2022-10-03T04:52:42.129Z,8.00
2022-10-03T04:53:42.313Z,12.00
2022-10-03T04:54:42.482Z,16.00
2022-10-03T04:55:42.621Z,16.00
2022-10-03T04:56:42.802Z,20.00
2022-10-03T04:57:42.983Z,16.00
2022-10-03T04:58:43.186Z,20.00
2022-10-03T04:59:43.369Z,24.00
2022-10-03T05:00:43.581Z,32.00
2022-10-03T05:01:43.751Z,36.00
2022-10-03T05:02:43.918Z,40.00
2022-10-03T05:03:44.121Z,48.00
2022-10-03T05:04:44.295Z,48.00
2022-10-03T05:05:44.473Z,48.00
2022-10-03T05:06:44.662Z,48.00
2022-10-03T05:07:44.867Z,56.00
2022-10-03T05:08:45.059Z,48.00
2022-10-03T05:09:45.239Z,68.00
2022-10-03T05:10:45.414Z,100.00
2022-10-03T05:11:45.595Z,96.00
2022-10-03T05:12:45.780Z,84.00
2022-10-03T05:13:45.970Z,80.00
2022-10-03T05:14:46.142Z,84.00
2022-10-03T05:15:46.322Z,92.00
2022-10-03T05:16:46.555Z,80.00
2022-10-03T05:17:46.672Z,88.00
2022-10-03T05:18:46.884Z,96.00
2022-10-03T05:19:47.092Z,108.00
2022-10-03T05:20:47.299Z,132.00
2022-10-03T05:21:47.556Z,172.00
2022-10-03T05:22:47.684Z,156.00
2022-10-03T05:23:47.898Z,148.00
2022-10-03T05:24:48.074Z,164.00
2022-10-03T05:25:48.256Z,192.00
2022-10-03T05:26:48.445Z,172.00
2022-10-03T05:27:48.676Z,164.00
2022-10-03T05:28:48.907Z,200.00
2022-10-03T05:29:48.974Z,236.00
2022-10-03T05:30:49.152Z,256.00
2022-10-03T05:31:49.390Z,260.00
2022-10-03T05:32:49.501Z,300.00
2022-10-03T05:33:49.734Z,380.00
2022-10-03T05:34:49.919Z,404.00
2022-10-03T05:35:50.129Z,444.00
2022-10-03T05:36:50.309Z,404.00
2022-10-03T05:37:50.498Z,400.00
2022-10-03T05:38:50.697Z,360.00
2022-10-03T05:39:50.874Z,352.00
2022-10-03T05:40:51.062Z,340.00
2022-10-03T05:42:05.111Z,400.00
2022-10-03T05:42:52.369Z,452.00
2022-10-03T05:43:51.583Z,512.00
2022-10-03T05:44:51.756Z,568.00
2022-10-03T05:45:51.966Z,616.00
2022-10-03T05:46:52.133Z,612.00
2022-10-03T05:47:52.328Z,640.00
2022-10-03T05:48:52.523Z,736.00
2022-10-03T05:49:52.712Z,884.00
2022-10-03T05:50:52.893Z,948.00
2022-10-03T05:51:53.071Z,1168.00
2022-10-03T05:52:53.259Z,1048.00
2022-10-03T05:53:53.449Z,1116.00
2022-10-03T05:54:53.623Z,1036.00
2022-10-03T05:55:53.816Z,1208.00
2022-10-03T05:56:53.991Z,1232.00
2022-10-03T05:57:54.174Z,1112.00
2022-10-03T05:58:54.374Z,1004.00
2022-10-03T05:59:54.560Z,964.00
2022-10-03T06:00:54.734Z,992.00
2022-10-03T06:01:54.974Z,1012.00
2022-10-03T06:02:55.186Z,884.00
2022-10-03T06:03:55.251Z,948.00
2022-10-03T06:04:55.426Z,864.00
2022-10-03T06:05:55.613Z,844.00
2022-10-03T06:06:55.796Z,968.00
2022-10-03T06:07:55.969Z,980.00
2022-10-03T06:08:56.167Z,1136.00
2022-10-03T06:09:56.346Z,1484.00
2022-10-03T06:11:03.541Z,1780.00
2022-10-03T06:11:59.386Z,1692.00
2022-10-03T06:12:56.889Z,1584.00
2022-10-03T06:13:57.086Z,1516.00
2022-10-03T06:14:57.276Z,1860.00
2022-10-03T06:15:57.484Z,2404.00
2022-10-03T06:16:57.696Z,2012.00
2022-10-03T06:17:57.884Z,2348.00
2022-10-03T06:18:58.090Z,2104.00
2022-10-03T06:19:58.276Z,1868.00
2022-10-03T06:20:58.467Z,1820.00
2022-10-03T06:21:58.663Z,2072.00
2022-10-03T06:23:02.388Z,2008.00
2022-10-03T06:24:00.004Z,2440.00
2022-10-03T06:24:59.211Z,2268.00
2022-10-03T06:25:59.404Z,2164.00
2022-10-03T06:26:59.591Z,1948.00
2022-10-03T06:27:59.799Z,1960.00
2022-10-03T06:28:59.942Z,2312.00
2022-10-03T06:30:00.150Z,2072.00
2022-10-03T06:31:00.367Z,2012.00
2022-10-03T06:32:00.456Z,2088.00
2022-10-03T06:33:00.643Z,2008.00
2022-10-03T06:34:00.820Z,2200.00
2022-10-03T06:35:01.031Z,1996.00
2022-10-03T06:36:01.217Z,2224.00
2022-10-03T06:37:01.402Z,1984.00
2022-10-03T06:38:01.582Z,1860.00
2022-10-03T06:39:01.791Z,2080.00
2022-10-03T06:40:04.214Z,2212.00
2022-10-03T06:41:03.101Z,2192.00
2022-10-03T06:42:02.272Z,1796.00
2022-10-03T06:43:02.452Z,1868.00
2022-10-03T06:44:02.655Z,2228.00
2022-10-03T06:45:02.831Z,2264.00
2022-10-03T06:46:03.052Z,3108.00
2022-10-03T06:47:03.140Z,2924.00
2022-10-03T06:48:03.337Z,5368.00
2022-10-03T06:49:03.542Z,4880.00
2022-10-03T06:50:03.732Z,4444.00
2022-10-03T06:51:04.220Z,4108.00
2022-10-03T06:52:04.061Z,3712.00
2022-10-03T06:53:04.241Z,3564.00
2022-10-03T06:54:04.442Z,3176.00
2022-10-03T06:55:04.630Z,3084.00
2022-10-03T06:56:04.809Z,2968.00
2022-10-03T06:57:05.010Z,3424.00
2022-10-03T06:58:05.194Z,3160.00
2022-10-03T06:59:05.404Z,3888.00
2022-10-03T07:00:05.586Z,4076.00
2022-10-03T07:01:05.840Z,4064.00
2022-10-03T07:02:05.934Z,3532.00
2022-10-03T07:03:06.121Z,4600.00
2022-10-03T07:04:06.309Z,4620.00
2022-10-03T07:05:06.537Z,5620.00
2022-10-03T07:06:06.698Z,6728.00
2022-10-03T07:07:06.886Z,4572.00
2022-10-03T07:08:07.096Z,4348.00
2022-10-03T07:09:07.266Z,6544.00
2022-10-03T07:10:07.431Z,5708.00
2022-10-03T07:11:07.686Z,6088.00
2022-10-03T07:12:12.152Z,7072.00
2022-10-03T07:13:08.870Z,9232.00
2022-10-03T07:14:08.071Z,5444.00
2022-10-03T07:15:08.255Z,6024.00
2022-10-03T07:16:25.955Z,7520.00
2022-10-03T07:17:09.641Z,6984.00
2022-10-03T07:18:08.731Z,5464.00
2022-10-03T07:19:08.933Z,4116.00
2022-10-03T07:20:09.095Z,4420.00
2022-10-03T07:21:12.438Z,5856.00
2022-10-03T07:22:10.389Z,4860.00
2022-10-03T07:23:09.556Z,3724.00
2022-10-03T07:24:09.787Z,3508.00
2022-10-03T07:25:09.846Z,4988.00
2022-10-03T07:26:10.063Z,3612.00
2022-10-03T07:27:10.232Z,2512.00
2022-10-03T07:28:10.450Z,2668.00
2022-10-03T07:29:10.687Z,3160.00
2022-10-03T07:30:10.755Z,3700.00
2022-10-03T07:31:11.009Z,2872.00
2022-10-03T07:32:11.039Z,2776.00
2022-10-03T07:33:11.212Z,2708.00
2022-10-03T07:34:11.454Z,4188.00
2022-10-03T07:35:11.509Z,5356.00
2022-10-03T07:36:11.681Z,6512.00
2022-10-03T07:37:11.869Z,6992.00
2022-10-03T07:38:12.052Z,7584.00
2022-10-03T07:39:12.271Z,7584.00
2022-10-03T07:40:12.334Z,6748.00
2022-10-03T07:41:12.503Z,6924.00
2022-10-03T07:42:12.683Z,5160.00
2022-10-03T07:43:12.846Z,9408.00
2022-10-03T07:44:13.031Z,7180.00
2022-10-03T07:45:13.222Z,10668.00
2022-10-03T07:46:13.620Z,7820.00
2022-10-03T07:47:13.542Z,7332.00
2022-10-03T07:48:13.711Z,10616.00
2022-10-03T07:49:18.256Z,7352.00
2022-10-03T07:50:14.071Z,7620.00
2022-10-03T07:51:14.231Z,6928.00
2022-10-03T07:52:14.420Z,5332.00
2022-10-03T07:53:14.575Z,4836.00
2022-10-03T07:54:14.760Z,6428.00
2022-10-03T07:55:15.029Z,5084.00
2022-10-03T07:56:15.083Z,5216.00
2022-10-03T07:57:15.242Z,4352.00
2022-10-03T07:58:15.434Z,3572.00
2022-10-03T07:59:15.618Z,3876.00
2022-10-03T08:00:15.814Z,3276.00
2022-10-03T08:01:16.000Z,3304.00
2022-10-03T08:02:16.239Z,3316.00
2022-10-03T08:03:16.366Z,3636.00
2022-10-03T08:04:16.440Z,3324.00
2022-10-03T08:05:16.600Z,3192.00
2022-10-03T08:06:16.780Z,3516.00
2022-10-03T08:07:16.966Z,3500.00
2022-10-03T08:08:17.149Z,3720.00
2022-10-03T08:09:17.345Z,4708.00
2022-10-03T08:10:17.435Z,5024.00
2022-10-03T08:11:17.619Z,5128.00
2022-10-03T08:12:17.808Z,6164.00
2022-10-03T08:13:17.982Z,5140.00
2022-10-03T08:14:18.179Z,6464.00
2022-10-03T08:15:18.349Z,5852.00
2022-10-03T08:16:18.598Z,4772.00
2022-10-03T08:17:18.680Z,6320.00
2022-10-03T08:18:18.846Z,9584.00
2022-10-03T08:19:19.039Z,9872.00
2022-10-03T08:20:19.218Z,12600.00
2022-10-03T08:21:19.383Z,12512.00
2022-10-03T08:22:19.569Z,37376.00
2022-10-03T08:23:19.724Z,17344.00
2022-10-03T08:24:19.904Z,17248.00
2022-10-03T08:25:20.066Z,47168.00
2022-10-03T08:26:20.230Z,15136.00
2022-10-03T08:27:20.389Z,11560.00
2022-10-03T08:28:20.632Z,12800.00
2022-10-03T08:29:20.723Z,11900.00
2022-10-03T08:30:20.922Z,8272.00
2022-10-03T08:31:21.081Z,23392.00
2022-10-03T08:32:21.180Z,19680.00
2022-10-03T08:33:21.325Z,10340.00
2022-10-03T08:34:21.506Z,8548.00
2022-10-03T08:35:21.669Z,8992.00
2022-10-03T08:36:21.826Z,7368.00
2022-10-03T08:37:21.995Z,8116.00
2022-10-03T08:38:24.988Z,16576.00
2022-10-03T08:39:23.301Z,37504.00
2022-10-03T08:40:22.331Z,46080.00
2022-10-03T08:41:22.473Z,11884.00
2022-10-03T08:42:22.615Z,13744.00
2022-10-03T08:43:22.767Z,15008.00
2022-10-03T08:44:25.953Z,12196.00
2022-10-03T08:45:24.029Z,15424.00
2022-10-03T08:46:23.237Z,15936.00
2022-10-03T08:47:23.349Z,13680.00
2022-10-03T08:48:23.513Z,33120.00
2022-10-03T08:49:23.644Z,16416.00
2022-10-03T08:50:23.812Z,22816.00
2022-10-03T08:51:23.965Z,12272.00
2022-10-03T08:52:24.110Z,32960.00
2022-10-03T08:53:24.248Z,10532.00
2022-10-03T08:54:24.388Z,52352.00
2022-10-03T08:55:24.549Z,21248.00
2022-10-03T08:56:24.683Z,12764.00
2022-10-03T08:57:24.823Z,13456.00
2022-10-03T08:58:24.955Z,15520.00
2022-10-03T08:59:25.094Z,12564.00
2022-10-03T09:00:25.244Z,53088.00
2022-10-03T09:01:25.399Z,8244.00
2022-10-03T09:02:25.650Z,12404.00
2022-10-03T09:03:34.364Z,8724.00
2022-10-03T09:04:26.729Z,7400.00
2022-10-03T09:05:25.866Z,9020.00
2022-10-03T09:06:25.993Z,9504.00
2022-10-03T09:07:26.560Z,8312.00
2022-10-03T09:08:26.295Z,9828.00
2022-10-03T09:09:26.431Z,9976.00
2022-10-03T09:10:26.613Z,13220.00
2022-10-03T09:11:26.643Z,57600.00
2022-10-03T09:12:26.774Z,25568.00
2022-10-03T09:13:26.907Z,8788.00
2022-10-03T09:14:27.063Z,5600.00
2022-10-03T09:15:27.238Z,4916.00
2022-10-03T09:16:27.425Z,4236.00
2022-10-03T09:17:27.520Z,4360.00
2022-10-03T09:18:27.662Z,4400.00
2022-10-03T09:19:27.782Z,7384.00
2022-10-03T09:20:27.939Z,7356.00
2022-10-03T09:21:28.083Z,5960.00
2022-10-03T09:22:28.236Z,6352.00
2022-10-03T09:23:28.404Z,9888.00
2022-10-03T09:24:28.532Z,15296.00
2022-10-03T09:25:28.716Z,25344.00
2022-10-03T09:26:28.857Z,16000.00
2022-10-03T09:27:29.981Z,15808.00
2022-10-03T09:28:29.183Z,11564.00
2022-10-03T09:29:29.391Z,37216.00
2022-10-03T09:30:29.491Z,15296.00
2022-10-03T09:31:29.585Z,33504.00
2022-10-03T09:32:29.711Z,10600.00
2022-10-03T09:33:29.858Z,10928.00
2022-10-03T09:34:30.030Z,9980.00
2022-10-03T09:35:30.207Z,8024.00
2022-10-03T09:36:30.231Z,7920.00
2022-10-03T09:37:30.372Z,8264.00
2022-10-03T09:38:30.526Z,18464.00
2022-10-03T09:39:30.672Z,17984.00
2022-10-03T09:40:30.831Z,10872.00
2022-10-03T09:41:30.962Z,10068.00
2022-10-03T09:42:31.112Z,7776.00
2022-10-03T09:43:31.247Z,7796.00
2022-10-03T09:44:31.371Z,15808.00
2022-10-03T09:45:31.529Z,41024.00
2022-10-03T09:46:31.821Z,19168.00
2022-10-03T09:47:31.851Z,8364.00
2022-10-03T09:48:31.978Z,10416.00
2022-10-03T09:49:32.110Z,20288.00
2022-10-03T09:50:32.266Z,49120.00
2022-10-03T09:51:32.400Z,9012.00
2022-10-03T09:52:32.537Z,10324.00
2022-10-03T09:53:32.710Z,40544.00
2022-10-03T09:54:32.830Z,11244.00
2022-10-03T09:55:34.249Z,7604.00
2022-10-03T09:56:33.127Z,6016.00
2022-10-03T09:57:33.290Z,7064.00
2022-10-03T09:58:33.430Z,7028.00
2022-10-03T09:59:33.581Z,7460.00
2022-10-03T10:00:33.781Z,5960.00
2022-10-03T10:01:33.822Z,4572.00
2022-10-03T10:02:33.932Z,4180.00
2022-10-03T10:03:34.127Z,3616.00
2022-10-03T10:04:53.499Z,3888.00
2022-10-03T10:05:35.402Z,4680.00
2022-10-03T10:06:34.415Z,4092.00
2022-10-03T10:07:34.550Z,3596.00
2022-10-03T10:08:34.692Z,3576.00
2022-10-03T10:09:34.858Z,3624.00
2022-10-03T10:10:35.008Z,3364.00
2022-10-03T10:11:35.627Z,3948.00
2022-10-03T10:12:35.614Z,4760.00
2022-10-03T10:13:56.116Z,5012.00
2022-10-03T10:14:36.606Z,4848.00
2022-10-03T10:15:35.774Z,4948.00
2022-10-03T10:16:35.987Z,6628.00
2022-10-03T10:17:36.128Z,10372.00
2022-10-03T10:18:36.293Z,12216.00
2022-10-03T10:19:36.443Z,11472.00
2022-10-03T10:20:36.594Z,23040.00
2022-10-03T10:21:36.761Z,19712.00
2022-10-03T10:22:36.947Z,11228.00
2022-10-03T10:23:37.073Z,70144.00
2022-10-03T10:24:37.223Z,70944.00
2022-10-03T10:25:37.381Z,27840.00
2022-10-03T10:26:37.539Z,21152.00
2022-10-03T10:27:37.684Z,10108.00
2022-10-03T10:28:38.007Z,12992.00
2022-10-03T10:29:37.906Z,22400.00
2022-10-03T10:30:38.049Z,16160.00
2022-10-03T10:31:38.231Z,69760.00
2022-10-03T10:32:38.257Z,15968.00
2022-10-03T10:33:38.471Z,65504.00
2022-10-03T10:34:38.452Z,67200.00
2022-10-03T10:35:38.564Z,21792.00
2022-10-03T10:36:38.995Z,55424.00
2022-10-03T10:37:41.635Z,65472.00
2022-10-03T10:38:39.756Z,11820.00
2022-10-03T10:39:38.846Z,63840.00
2022-10-03T10:40:38.995Z,62784.00
2022-10-03T10:41:39.359Z,65216.00
2022-10-03T10:42:39.227Z,66528.00
2022-10-03T10:43:39.325Z,20256.00
2022-10-03T10:44:39.412Z,15648.00
2022-10-03T10:45:39.498Z,59936.00
2022-10-03T10:46:40.079Z,65216.00
2022-10-03T10:47:39.694Z,66560.00
2022-10-03T10:48:39.768Z,40384.00
2022-10-03T10:49:39.838Z,49632.00
2022-10-03T10:50:39.893Z,76512.00
2022-10-03T10:51:40.025Z,30944.00
2022-10-03T10:52:40.000Z,15808.00
2022-10-03T10:53:40.260Z,11916.00
2022-10-03T10:54:40.130Z,12848.00
2022-10-03T10:55:44.049Z,8916.00
2022-10-03T10:56:41.705Z,10084.00
2022-10-03T10:57:40.216Z,10732.00
2022-10-03T10:58:40.287Z,12448.00
2022-10-03T10:59:40.368Z,14064.00
2022-10-03T11:00:40.460Z,16288.00
2022-10-03T11:01:45.154Z,15072.00
2022-10-03T11:02:41.611Z,15296.00
2022-10-03T11:03:40.740Z,14480.00
2022-10-03T11:04:40.784Z,13168.00
2022-10-03T11:05:40.772Z,11452.00
2022-10-03T11:06:41.430Z,9252.00
2022-10-03T11:07:40.960Z,6744.00
2022-10-03T11:08:41.054Z,8348.00
2022-10-03T11:09:41.154Z,11584.00
2022-10-03T11:10:41.285Z,11524.00
2022-10-03T11:11:41.397Z,11864.00
2022-10-03T11:12:41.510Z,11156.00
2022-10-03T11:13:41.623Z,12540.00
2022-10-03T11:14:41.751Z,13584.00
2022-10-03T11:15:41.855Z,12404.00
2022-10-03T11:16:42.419Z,11420.00
2022-10-03T11:17:42.135Z,10840.00
2022-10-03T11:18:42.155Z,10056.00
2022-10-03T11:19:42.265Z,10040.00
2022-10-03T11:20:42.383Z,10056.00
2022-10-03T11:21:42.523Z,11324.00
2022-10-03T11:22:42.659Z,9872.00
2022-10-03T11:23:42.782Z,9216.00
2022-10-03T11:24:42.911Z,8220.00
2022-10-03T11:25:43.019Z,6948.00
2022-10-03T11:26:43.434Z,8584.00
2022-10-03T11:27:43.279Z,43680.00
2022-10-03T11:28:43.512Z,14976.00
2022-10-03T11:29:43.499Z,9480.00
2022-10-03T11:30:43.633Z,10400.00
2022-10-03T11:31:43.838Z,11208.00
2022-10-03T11:32:43.868Z,12080.00
2022-10-03T11:33:44.031Z,12516.00
2022-10-03T11:34:44.182Z,9680.00
2022-10-03T11:35:44.316Z,9696.00
2022-10-03T11:36:44.664Z,8556.00
2022-10-03T11:37:44.633Z,9472.00
2022-10-03T11:38:44.789Z,10112.00
2022-10-03T11:39:44.927Z,10488.00
2022-10-03T11:40:45.072Z,9392.00
2022-10-03T11:41:45.222Z,8348.00
2022-10-03T11:42:45.378Z,7880.00
2022-10-03T11:43:45.519Z,7048.00
2022-10-03T11:44:45.673Z,7468.00
2022-10-03T11:45:45.854Z,12476.00
2022-10-03T11:46:45.999Z,11240.00
2022-10-03T11:47:46.168Z,11240.00
2022-10-03T11:48:46.333Z,11356.00
2022-10-03T11:49:46.482Z,12248.00
2022-10-03T11:50:46.630Z,11988.00
2022-10-03T11:51:51.538Z,10852.00
2022-10-03T11:52:47.895Z,12280.00
2022-10-03T11:53:47.044Z,19296.00
2022-10-03T11:54:47.498Z,17984.00
2022-10-03T11:55:47.317Z,22400.00
2022-10-03T11:56:47.474Z,15392.00
2022-10-03T11:57:47.611Z,23840.00
2022-10-03T11:58:47.757Z,16512.00
2022-10-03T11:59:47.903Z,14624.00
2022-10-03T12:00:48.047Z,10928.00
2022-10-03T12:01:51.390Z,8824.00
2022-10-03T12:02:48.385Z,7896.00
2022-10-03T12:03:48.470Z,7164.00
2022-10-03T12:04:48.616Z,5936.00
2022-10-03T12:05:48.743Z,4988.00
2022-10-03T12:06:48.881Z,4760.00
2022-10-03T12:07:49.010Z,4676.00
2022-10-03T12:08:49.187Z,3528.00
2022-10-03T12:09:49.325Z,2420.00
2022-10-03T12:10:56.566Z,2388.00
2022-10-03T12:11:50.306Z,2992.00
2022-10-03T12:12:49.663Z,5028.00
2022-10-03T12:13:49.840Z,7828.00
2022-10-03T12:14:50.001Z,12948.00
2022-10-03T12:15:50.157Z,12772.00
2022-10-03T12:16:50.352Z,12356.00
2022-10-03T12:17:50.398Z,24928.00
2022-10-03T12:18:50.572Z,33728.00
2022-10-03T12:19:50.740Z,19200.00
2022-10-03T12:20:50.881Z,30112.00
2022-10-03T12:21:51.023Z,57824.00
2022-10-03T12:22:51.162Z,61824.00
2022-10-03T12:23:51.306Z,60160.00
2022-10-03T12:24:51.442Z,58112.00
2022-10-03T12:25:51.572Z,55808.00
2022-10-03T12:26:52.264Z,55264.00
2022-10-03T12:27:51.840Z,57472.00
2022-10-03T12:28:52.073Z,43392.00
2022-10-03T12:29:51.950Z,18784.00
2022-10-03T12:30:52.045Z,16352.00
2022-10-03T12:31:52.180Z,11700.00
2022-10-03T12:32:52.243Z,9140.00